Time;durP1;ratioP1;P1;durP2;ratioP2;P2;SDS_P1;SDS_P2;PMS_P1;PMS_P2;Temp;Humidity;BMP_temperature;BMP_pressure;BME280_temperature;BME280_humidity;BME280_pressure;Samples;Min_cycle;Max_cycle;Signal;HPM_P1;HPM_P2
2022/10/22 00:00:58;;;;;;;;;2.00;1.75;;;;;21.36;59.39;100154.84;5061698;28;62868;-45
2022/10/22 00:03:24;;;;;;;;;3.00;2.00;;;;;21.35;59.30;100144.28;5060230;28;68173;-45
2022/10/22 00:05:49;;;;;;;;;2.50;2.50;;;;;21.34;58.98;100154.03;5068729;28;45405;-44
2022/10/22 00:08:14;;;;;;;;;3.75;2.00;;;;;21.32;59.38;100160.34;5081674;28;66503;-49
2022/10/22 00:10:40;;;;;;;;;3.00;3.00;;;;;21.28;58.87;100156.09;5075827;28;53996;-49
2022/10/22 00:13:05;;;;;;;;;2.00;2.00;;;;;21.26;58.30;100156.13;5061170;28;47635;-45
2022/10/22 00:15:31;;;;;;;;;4.50;2.00;;;;;21.22;58.61;100154.56;5062029;28;49696;-45
2022/10/22 00:17:56;;;;;;;;;2.50;1.75;;;;;21.20;58.45;100161.75;5060880;28;45852;-45
2022/10/22 00:20:22;;;;;;;;;5.75;2.75;;;;;21.19;58.92;100157.34;5062009;28;45240;-44
2022/10/22 00:22:47;;;;;;;;;4.00;2.00;;;;;21.17;58.85;100156.53;5060066;28;60397;-44
2022/10/22 00:25:12;;;;;;;;;4.25;2.00;;;;;21.15;58.42;100169.03;5061747;28;45298;-45
2022/10/22 00:27:38;;;;;;;;;3.25;2.50;;;;;21.14;59.17;100169.97;5061683;28;61159;-46
2022/10/22 00:30:04;;;;;;;;;4.00;3.00;;;;;21.14;59.25;100169.97;5061069;28;67736;-45
2022/10/22 00:32:29;;;;;;;;;3.75;2.50;;;;;21.14;58.82;100175.25;5052494;28;46169;-48
2022/10/22 00:34:54;;;;;;;;;3.50;2.25;;;;;21.14;59.28;100177.91;5060857;28;71350;-45
2022/10/22 00:37:20;;;;;;;;;4.25;3.75;;;;;21.11;58.47;100180.69;5061611;28;45981;-49
2022/10/22 00:39:45;;;;;;;;;3.00;3.00;;;;;21.10;58.71;100179.81;5078157;28;64291;-50
2022/10/22 00:42:16;;;;;;;;;1.50;1.50;;;;;21.10;58.77;100181.63;5059709;28;68820;-44
2022/10/22 00:45:10;;;;;;;;;2.25;1.00;;;;;21.07;58.35;100193.22;5079295;28;49848;-47
2022/10/22 00:47:47;;;;;;;;;2.00;2.00;;;;;21.07;58.46;100197.69;5066995;28;45545;-51
2022/10/22 00:50:22;;;;;;;;;2.75;1.50;;;;;21.06;59.50;100202.13;5082282;28;45256;-46
2022/10/22 00:52:47;;;;;;;;;2.00;2.00;;;;;21.08;59.38;100204.72;5081465;28;46645;-47
2022/10/22 00:55:13;;;;;;;;;3.00;3.00;;;;;21.06;58.68;100195.97;5047053;28;45325;-49
2022/10/22 00:57:38;;;;;;;;;4.00;2.00;;;;;21.03;58.02;100209.38;5080726;28;45330;-50
2022/10/22 01:00:04;;;;;;;;;4.00;2.00;;;;;20.99;58.82;100210.41;5080790;28;45511;-48
2022/10/22 01:02:29;;;;;;;;;1.75;1.75;;;;;20.97;58.46;100221.09;5080133;28;45291;-46
2022/10/22 01:04:55;;;;;;;;;2.50;1.00;;;;;20.93;59.03;100224.78;5067286;28;62394;-45
2022/10/22 01:07:21;;;;;;;;;4.00;2.50;;;;;20.96;61.18;100226.47;5079665;28;62651;-44
2022/10/22 01:09:52;;;;;;;;;2.50;2.50;;;;;21.03;60.79;100226.16;5081630;28;45425;-44
2022/10/22 01:12:48;;;;;;;;;2.75;2.25;;;;;21.11;60.66;100231.09;5060303;28;45448;-43
2022/10/22 01:15:19;;;;;;;;;4.00;3.00;;;;;21.17;60.96;100237.03;5059149;28;45353;-47
2022/10/22 01:18:01;;;;;;;;;3.00;3.00;;;;;21.21;60.88;100240.44;5061141;28;45486;-46
2022/10/22 01:20:45;;;;;;;;;2.50;2.00;;;;;21.26;61.24;100234.91;5059990;28;45258;-43
2022/10/22 01:23:22;;;;;;;;;4.75;3.00;;;;;21.30;61.47;100239.19;5073124;28;45283;-45
2022/10/22 01:25:57;;;;;;;;;2.25;2.00;;;;;21.33;61.67;100242.56;5061032;28;45242;-46
2022/10/22 01:28:49;;;;;;;;;3.50;3.50;;;;;21.36;61.18;100245.09;5045637;28;45423;-48
2022/10/22 01:31:15;;;;;;;;;4.00;4.00;;;;;21.39;61.58;100247.63;5076441;28;45343;-45
2022/10/22 01:33:41;;;;;;;;;4.75;4.00;;;;;21.42;61.59;100254.59;5042815;28;53441;-45
2022/10/22 01:36:06;;;;;;;;;4.00;4.00;;;;;21.44;61.65;100255.38;5054800;28;45246;-44
2022/10/22 01:38:32;;;;;;;;;4.00;4.00;;;;;21.48;61.71;100261.44;5067938;28;45266;-46
2022/10/22 01:40:57;;;;;;;;;2.25;2.25;;;;;21.49;61.82;100256.06;5064308;28;45679;-44
2022/10/22 01:43:22;;;;;;;;;5.25;3.00;;;;;21.52;62.08;100270.97;5050997;28;63626;-44
2022/10/22 01:45:53;;;;;;;;;4.00;4.00;;;;;21.54;61.89;100261.16;5065253;28;56378;-46
2022/10/22 01:48:30;;;;;;;;;5.00;4.00;;;;;21.56;61.84;100261.97;5059527;28;45349;-44
2022/10/22 01:51:05;;;;;;;;;4.00;3.00;;;;;21.58;61.87;100260.09;5073290;28;45421;-44
2022/10/22 01:53:33;;;;;;;;;3.75;3.25;;;;;21.58;62.08;100263.63;5059775;28;45418;-45
2022/10/22 01:56:24;;;;;;;;;3.50;3.50;;;;;21.60;62.26;100259.09;5060551;28;45251;-47
2022/10/22 01:59:18;;;;;;;;;6.75;5.50;;;;;21.62;62.39;100256.38;5037030;28;45427;-44
2022/10/22 02:01:54;;;;;;;;;4.00;4.00;;;;;21.64;62.21;100260.69;5060628;28;45332;-44
2022/10/22 02:04:22;;;;;;;;;3.25;3.25;;;;;21.65;62.33;100259.78;5059400;28;45335;-45
2022/10/22 02:06:49;;;;;;;;;3.50;2.75;;;;;21.66;62.46;100258.84;5073859;28;45339;-43
2022/10/22 02:09:14;;;;;;;;;6.00;4.00;;;;;21.66;62.68;100261.50;5062954;28;45459;-44
2022/10/22 02:11:40;;;;;;;;;4.50;3.75;;;;;21.68;62.24;100266.72;5065737;28;45375;-44
2022/10/22 02:14:06;;;;;;;;;6.00;4.00;;;;;21.68;62.71;100267.59;5079465;28;46083;-43
2022/10/22 02:16:35;;;;;;;;;3.50;3.50;;;;;21.71;62.32;100280.72;5078173;28;70411;-43
2022/10/22 02:19:02;;;;;;;;;6.00;3.75;;;;;21.71;62.66;100282.53;5079605;28;45261;-47
2022/10/22 02:21:27;;;;;;;;;4.25;3.25;;;;;21.72;62.76;100276.31;5060775;28;45249;-49
2022/10/22 02:23:53;;;;;;;;;4.00;3.75;;;;;21.73;62.39;100276.22;5046227;28;69137;-49
2022/10/22 02:26:50;;;;;;;;;5.75;5.25;;;;;21.74;62.89;100269.13;5060185;28;47081;-50
2022/10/22 02:29:38;;;;;;;;;5.00;5.00;;;;;21.75;62.95;100264.66;5059866;28;45285;-47
2022/10/22 02:32:04;;;;;;;;;7.00;5.00;;;;;21.76;63.17;100263.75;5051444;28;45409;-47
2022/10/22 02:34:30;;;;;;;;;5.25;4.00;;;;;21.77;62.91;100265.47;5062019;28;45319;-49
2022/10/22 02:36:56;;;;;;;;;3.50;3.50;;;;;21.78;62.68;100272.50;5079095;28;45340;-49
2022/10/22 02:39:21;;;;;;;;;4.75;4.00;;;;;21.78;63.15;100280.47;5079210;28;45267;-45
2022/10/22 02:41:46;;;;;;;;;6.00;5.00;;;;;21.79;63.17;100279.53;5078790;28;56778;-46
2022/10/22 02:44:12;;;;;;;;;3.75;3.50;;;;;21.79;62.89;100279.53;5079800;28;50962;-47
2022/10/22 02:46:38;;;;;;;;;3.25;3.25;;;;;21.78;62.94;100283.97;5079074;28;73356;-47
2022/10/22 02:49:03;;;;;;;;;5.00;5.00;;;;;21.79;62.97;100290.16;5079051;28;45461;-45
2022/10/22 02:51:29;;;;;;;;;6.00;3.00;;;;;21.79;63.23;100292.81;5079485;28;63837;-45
2022/10/22 02:53:54;;;;;;;;;3.50;3.50;;;;;21.80;63.36;100292.75;5079088;28;70928;-45
2022/10/22 02:56:19;;;;;;;;;6.00;5.00;;;;;21.80;63.07;100303.38;5078815;28;45818;-46
2022/10/22 02:58:45;;;;;;;;;4.00;4.00;;;;;21.81;62.97;100309.56;5078047;28;64720;-49
2022/10/22 03:01:10;;;;;;;;;4.00;4.00;;;;;21.81;63.42;100312.22;5079968;28;47644;-44
2022/10/22 03:03:36;;;;;;;;;5.50;4.25;;;;;21.82;63.05;100308.63;5061334;28;46998;-45
2022/10/22 03:06:01;;;;;;;;;6.00;5.00;;;;;21.82;63.06;100317.47;5071345;28;55664;-45
2022/10/22 03:08:26;;;;;;;;;4.00;4.00;;;;;21.82;63.42;100316.59;5082203;28;45342;-46
2022/10/22 03:10:52;;;;;;;;;3.25;3.25;;;;;21.82;63.58;100322.78;5073985;28;45481;-44
2022/10/22 03:13:17;;;;;;;;;4.25;4.25;;;;;21.82;63.71;100313.94;5074760;28;60308;-46
2022/10/22 03:15:42;;;;;;;;;6.25;3.50;;;;;21.83;63.13;100318.31;5060975;28;61354;-45
2022/10/22 03:18:08;;;;;;;;;3.50;3.00;;;;;21.82;63.29;100320.13;5061993;28;68430;-46
2022/10/22 03:20:33;;;;;;;;;3.00;3.00;;;;;21.84;63.69;100320.06;5069301;28;67795;-44
2022/10/22 03:22:59;;;;;;;;;5.75;3.75;;;;;21.84;63.70;100333.34;5067356;28;66086;-43
2022/10/22 03:25:24;;;;;;;;;4.25;4.00;;;;;21.84;63.88;100328.88;5061662;28;45327;-44
2022/10/22 03:27:50;;;;;;;;;5.00;4.75;;;;;21.85;63.61;100335.91;5057928;28;61256;-43
2022/10/22 03:30:16;;;;;;;;;6.00;3.00;;;;;21.85;63.60;100329.75;5063085;28;45457;-46
2022/10/22 03:32:41;;;;;;;;;3.50;3.25;;;;;21.86;63.46;100334.97;5062764;28;45228;-47
2022/10/22 03:35:07;;;;;;;;;3.00;3.00;;;;;21.84;63.20;100339.50;5062924;28;45273;-44
2022/10/22 03:37:32;;;;;;;;;5.00;3.75;;;;;21.85;63.15;100333.25;5062608;28;45224;-43
2022/10/22 03:39:57;;;;;;;;;4.75;4.00;;;;;21.86;63.37;100340.28;5068991;28;54373;-44
2022/10/22 03:42:23;;;;;;;;;5.25;3.00;;;;;21.86;63.36;100342.09;5080738;28;47234;-44
2022/10/22 03:44:48;;;;;;;;;6.00;4.75;;;;;21.85;63.66;100338.56;5061644;28;45255;-48
2022/10/22 03:47:14;;;;;;;;;4.00;3.75;;;;;21.86;63.80;100345.63;5074386;28;54898;-44
2022/10/22 03:49:39;;;;;;;;;4.00;4.00;;;;;21.86;63.38;100342.97;5061871;28;67898;-44
2022/10/22 03:52:09;;;;;;;;;3.00;2.75;;;;;21.86;63.82;100347.41;5062346;28;45484;-43
2022/10/22 03:54:34;;;;;;;;;4.00;3.00;;;;;21.87;63.36;100341.16;5062687;28;45406;-45
2022/10/22 03:57:00;;;;;;;;;5.25;5.00;;;;;21.87;63.73;100354.44;5061357;28;45179;-43
2022/10/22 03:59:25;;;;;;;;;3.00;3.00;;;;;21.88;63.57;100348.19;5061998;28;65359;-43
2022/10/22 04:01:50;;;;;;;;;4.75;4.75;;;;;21.88;63.96;100358.81;5061298;28;45493;-45
2022/10/22 04:04:16;;;;;;;;;5.25;4.75;;;;;21.87;63.96;100360.63;5068135;28;58959;-45
2022/10/22 04:06:41;;;;;;;;;4.25;4.00;;;;;21.87;63.77;100357.97;5082214;28;56380;-46
2022/10/22 04:09:06;;;;;;;;;6.00;4.75;;;;;21.89;63.64;100360.53;5081830;28;69836;-43
2022/10/22 04:11:32;;;;;;;;;4.00;4.00;;;;;21.88;63.58;100372.97;5066590;28;64685;-44
2022/10/22 04:13:57;;;;;;;;;4.00;2.75;;;;;21.88;63.79;100372.09;5062389;28;45287;-45
2022/10/22 04:16:23;;;;;;;;;5.00;5.00;;;;;21.88;63.89;100374.75;5060132;28;45447;-45
2022/10/22 04:18:48;;;;;;;;;3.50;3.00;;;;;21.89;63.59;100373.81;5062167;28;45608;-45
2022/10/22 04:21:15;;;;;;;;;5.00;4.50;;;;;21.88;63.65;100386.25;5074240;28;46144;-44
2022/10/22 04:23:45;;;;;;;;;4.00;4.00;;;;;21.88;63.96;100378.28;5075604;27;45341;-44
2022/10/22 04:26:10;;;;;;;;;2.00;2.00;;;;;21.88;63.98;100380.94;5062117;28;45293;-44
2022/10/22 04:28:35;;;;;;;;;3.25;3.25;;;;;21.89;63.75;100388.00;5061156;28;73213;-44
2022/10/22 04:31:09;;;;;;;;;3.00;3.00;;;;;21.89;63.93;100385.34;5059424;28;74085;-46
2022/10/22 04:33:34;;;;;;;;;2.25;2.25;;;;;21.88;63.54;100378.28;5062089;28;45374;-43
2022/10/22 04:36:00;;;;;;;;;4.00;4.00;;;;;21.88;63.65;100388.91;5073790;28;57143;-44
2022/10/22 04:38:25;;;;;;;;;4.00;4.00;;;;;21.88;64.00;100390.69;5061076;28;63055;-47
2022/10/22 04:40:50;;;;;;;;;4.00;3.00;;;;;21.89;63.98;100392.44;5060821;28;68547;-46
2022/10/22 04:43:16;;;;;;;;;4.00;4.00;;;;;21.88;64.04;100393.38;5068340;28;66126;-44
2022/10/22 04:45:41;;;;;;;;;5.00;3.50;;;;;21.89;64.08;100398.63;5066802;28;45882;-45
2022/10/22 04:48:06;;;;;;;;;5.75;3.25;;;;;21.89;63.62;100398.63;5061592;28;45533;-42
2022/10/22 04:50:32;;;;;;;;;4.50;4.50;;;;;21.89;64.25;100398.63;5060760;28;68425;-43
2022/10/22 04:52:57;;;;;;;;;4.00;4.00;;;;;21.89;64.13;100406.59;5061444;28;45161;-44
2022/10/22 04:55:23;;;;;;;;;3.00;2.50;;;;;21.90;63.88;100405.69;5060934;28;61855;-44
2022/10/22 04:57:48;;;;;;;;;6.00;5.25;;;;;21.90;63.87;100402.16;5059622;28;63517;-45
2022/10/22 05:00:15;;;;;;;;;3.00;3.00;;;;;21.90;63.93;100403.00;5061165;28;52178;-45
2022/10/22 05:02:43;;;;;;;;;3.75;2.25;;;;;21.91;63.46;100401.22;5061154;28;45346;-43
2022/10/22 05:05:08;;;;;;;;;5.00;4.00;;;;;21.90;63.43;100411.00;5062209;28;45256;-43
2022/10/22 05:07:34;;;;;;;;;5.00;2.25;;;;;21.89;63.79;100401.28;5081576;28;45270;-44
2022/10/22 05:10:01;;;;;;;;;4.00;4.00;;;;;21.90;63.97;100405.69;5079685;28;45469;-45
2022/10/22 05:12:28;;;;;;;;;3.00;3.00;;;;;21.90;63.19;100415.44;5060300;28;45413;-45
2022/10/22 05:14:54;;;;;;;;;4.75;4.75;;;;;21.91;63.66;100411.84;5073771;28;45290;-46
2022/10/22 05:17:20;;;;;;;;;3.75;2.00;;;;;21.91;63.73;100409.19;5060865;28;45487;-43
2022/10/22 05:19:45;;;;;;;;;4.00;3.50;;;;;21.91;63.43;100426.00;5060522;28;60508;-44
2022/10/22 05:22:11;;;;;;;;;5.00;2.75;;;;;21.91;63.86;100420.69;5060382;28;66733;-45
2022/10/22 05:24:36;;;;;;;;;3.50;3.50;;;;;21.90;63.54;100426.94;5073607;28;45359;-42
2022/10/22 05:27:02;;;;;;;;;4.00;3.25;;;;;21.91;63.84;100433.09;5059889;28;45317;-44
2022/10/22 05:29:27;;;;;;;;;4.00;3.00;;;;;21.92;63.99;100425.06;5060601;28;45678;-45
2022/10/22 05:31:53;;;;;;;;;3.00;3.00;;;;;21.91;63.72;100426.00;5067607;28;45392;-46
2022/10/22 05:34:18;;;;;;;;;8.00;4.00;;;;;21.91;63.46;100428.66;5066882;28;45266;-45
2022/10/22 05:36:43;;;;;;;;;4.50;3.00;;;;;21.92;63.85;100434.81;5059997;28;67073;-50
2022/10/22 05:39:09;;;;;;;;;2.50;2.25;;;;;21.92;63.31;100440.16;5060901;28;46071;-45
2022/10/22 05:41:34;;;;;;;;;5.00;2.75;;;;;21.92;63.86;100440.16;5059736;28;45825;-50
2022/10/22 05:44:00;;;;;;;;;5.50;4.25;;;;;21.91;63.26;100441.94;5059702;28;45324;-47
2022/10/22 05:46:27;;;;;;;;;5.25;3.50;;;;;21.92;63.37;100440.16;5029394;28;65600;-45
2022/10/22 05:48:58;;;;;;;;;3.50;3.50;;;;;21.92;63.82;100442.81;5038584;28;46841;-43
2022/10/22 05:51:24;;;;;;;;;5.00;3.75;;;;;21.92;63.31;100440.16;5079909;28;45337;-44
2022/10/22 05:53:51;;;;;;;;;4.50;4.00;;;;;21.92;63.50;100435.69;5081297;28;45491;-44
2022/10/22 05:56:17;;;;;;;;;3.75;3.75;;;;;21.93;63.48;100445.38;5054593;28;45356;-43
2022/10/22 05:58:43;;;;;;;;;2.75;2.25;;;;;21.94;63.63;100440.94;5059558;28;46075;-45
2022/10/22 06:01:26;;;;;;;;;4.50;3.00;;;;;21.95;64.06;100446.19;5059942;28;45256;-45
2022/10/22 06:03:55;;;;;;;;;3.50;2.75;;;;;21.96;63.59;100450.56;5064238;28;45286;-44
2022/10/22 06:06:33;;;;;;;;;5.75;4.00;;;;;21.97;63.54;100443.44;5079345;28;45497;-45
2022/10/22 06:09:20;;;;;;;;;4.00;4.00;;;;;21.96;63.71;100447.91;5080580;28;45246;-46
2022/10/22 06:11:46;;;;;;;;;5.25;3.75;;;;;21.96;63.95;100447.91;5059906;28;45432;-48
2022/10/22 06:14:11;;;;;;;;;4.00;3.00;;;;;21.97;64.04;100452.28;5047955;28;45304;-45
2022/10/22 06:16:37;;;;;;;;;3.75;3.75;;;;;21.98;64.16;100453.19;5039024;28;45567;-47
2022/10/22 06:19:02;;;;;;;;;3.00;3.00;;;;;21.98;63.89;100461.16;5080453;28;50928;-43
2022/10/22 06:21:28;;;;;;;;;3.50;3.50;;;;;21.97;63.64;100462.91;5079447;28;45253;-45
2022/10/22 06:23:57;;;;;;;;;3.00;2.75;;;;;21.97;64.15;100465.56;5080676;28;45441;-43
2022/10/22 06:26:22;;;;;;;;;5.50;3.00;;;;;21.98;64.34;100466.47;5079246;28;46176;-44
2022/10/22 06:28:48;;;;;;;;;3.00;2.75;;;;;21.98;64.14;100472.66;5079856;28;69783;-45
2022/10/22 06:31:13;;;;;;;;;3.75;2.25;;;;;21.98;63.70;100477.09;5079676;28;65609;-45
2022/10/22 06:33:42;;;;;;;;;4.75;2.75;;;;;22.00;64.12;100469.91;5080751;28;45668;-42
2022/10/22 06:36:12;;;;;;;;;4.00;3.25;;;;;22.00;63.90;100469.91;5080127;28;45416;-42
2022/10/22 06:38:37;;;;;;;;;5.75;3.50;;;;;22.01;63.51;100477.81;5083408;28;46212;-45
2022/10/22 06:41:07;;;;;;;;;3.50;2.75;;;;;22.00;63.92;100473.44;5085739;28;45375;-43
2022/10/22 06:43:33;;;;;;;;;4.50;4.00;;;;;22.01;63.39;100472.50;5086078;28;45344;-45
2022/10/22 06:46:02;;;;;;;;;5.25;4.00;;;;;22.02;63.67;100481.34;5085572;28;45378;-47
2022/10/22 06:48:27;;;;;;;;;5.25;5.25;;;;;22.02;64.08;100490.19;5086961;28;46090;-43
2022/10/22 06:50:53;;;;;;;;;5.75;4.00;;;;;22.01;63.76;100493.75;5085683;28;45285;-45
2022/10/22 06:53:18;;;;;;;;;6.25;5.00;;;;;22.01;64.13;100493.75;5085245;28;51636;-47
2022/10/22 06:55:43;;;;;;;;;4.25;4.00;;;;;22.04;63.90;100502.53;5085346;28;55418;-44
2022/10/22 06:58:09;;;;;;;;;3.75;1.25;;;;;22.05;64.13;100504.25;5085901;28;72596;-42
2022/10/22 07:00:34;;;;;;;;;6.75;4.00;;;;;22.07;63.86;100508.63;5068480;28;45351;-44
2022/10/22 07:03:00;;;;;;;;;4.00;3.00;;;;;22.11;64.14;100514.66;5073223;28;69391;-44
2022/10/22 07:05:25;;;;;;;;;2.25;2.25;;;;;22.12;64.41;100519.91;5077600;28;66430;-42
2022/10/22 07:07:51;;;;;;;;;7.00;5.00;;;;;22.14;64.30;100517.19;5086290;28;45454;-42
2022/10/22 07:10:16;;;;;;;;;6.00;5.25;;;;;22.15;64.50;100522.47;5086729;28;45201;-45
2022/10/22 07:12:41;;;;;;;;;3.50;3.00;;;;;22.19;64.45;100531.16;5069730;28;62395;-47
2022/10/22 07:15:07;;;;;;;;;4.50;4.00;;;;;22.19;64.20;100534.69;5076646;28;45362;-44
2022/10/22 07:17:32;;;;;;;;;4.25;4.25;;;;;22.21;64.49;100537.28;5064717;28;53322;-42
2022/10/22 07:19:58;;;;;;;;;3.75;2.50;;;;;22.21;63.97;100539.94;5066778;28;62148;-45
2022/10/22 07:22:23;;;;;;;;;3.50;3.00;;;;;22.22;63.96;100541.66;5073705;28;51075;-44
2022/10/22 07:24:49;;;;;;;;;5.75;5.25;;;;;22.25;63.86;100546.88;5076249;28;45273;-49
2022/10/22 07:27:14;;;;;;;;;8.50;4.25;;;;;22.27;64.50;100540.56;5076002;28;60720;-45
2022/10/22 07:29:39;;;;;;;;;4.25;3.00;;;;;22.27;63.91;100543.22;5085707;28;45239;-47
2022/10/22 07:32:05;;;;;;;;;7.25;5.25;;;;;22.31;64.37;100551.91;5065613;28;58605;-48
2022/10/22 07:34:30;;;;;;;;;5.00;4.00;;;;;22.33;63.98;100551.84;5065237;28;66257;-43
2022/10/22 07:36:56;;;;;;;;;4.50;3.00;;;;;22.33;64.34;100560.72;5078654;27;64673;-44
2022/10/22 07:39:22;;;;;;;;;4.50;4.50;;;;;22.33;64.47;100557.16;5077403;28;45401;-41
2022/10/22 07:41:47;;;;;;;;;4.50;4.25;;;;;22.34;63.23;100566.88;5078780;28;45539;-41
2022/10/22 07:44:12;;;;;;;;;6.50;5.00;;;;;22.33;63.85;100563.38;5065033;28;63723;-42
2022/10/22 07:46:38;;;;;;;;;6.75;3.50;;;;;22.33;63.71;100558.03;5064890;28;71024;-41
2022/10/22 07:49:03;;;;;;;;;5.75;5.00;;;;;22.32;64.09;100564.25;5065695;28;45330;-42
2022/10/22 07:51:28;;;;;;;;;7.25;5.25;;;;;22.32;64.21;100566.91;5064046;28;45484;-45
2022/10/22 07:53:54;;;;;;;;;4.75;3.75;;;;;22.37;64.20;100572.94;5061958;28;45489;-50
2022/10/22 07:56:19;;;;;;;;;7.00;3.25;;;;;22.42;63.93;100568.28;5062315;28;46217;-47
2022/10/22 07:58:45;;;;;;;;;7.00;4.00;;;;;22.44;64.08;100569.09;5074402;28;45416;-47
2022/10/22 08:01:10;;;;;;;;;5.00;3.75;;;;;22.45;64.18;100567.28;5079983;28;61212;-44
2022/10/22 08:03:35;;;;;;;;;7.00;4.75;;;;;22.44;64.35;100571.75;5079757;28;45402;-45
2022/10/22 08:06:01;;;;;;;;;11.00;5.50;;;;;22.43;63.74;100575.34;5061847;28;45247;-43
2022/10/22 08:08:28;;;;;;;;;12.50;5.00;;;;;22.44;63.62;100576.19;5061356;28;45275;-43
2022/10/22 08:10:54;;;;;;;;;8.75;5.75;;;;;22.44;64.11;100586.84;5075456;28;45290;-43
2022/10/22 08:13:19;;;;;;;;;7.00;5.00;;;;;22.43;64.11;100596.63;5061299;28;45578;-47
2022/10/22 08:15:45;;;;;;;;;5.75;5.50;;;;;22.42;64.07;100583.38;5055585;28;45622;-46
2022/10/22 08:18:11;;;;;;;;;7.00;5.75;;;;;22.40;63.87;100580.75;5062172;28;45304;-48
2022/10/22 08:20:37;;;;;;;;;6.00;5.00;;;;;22.41;63.48;100586.94;5074624;28;45436;-47
2022/10/22 08:23:02;;;;;;;;;7.25;6.25;;;;;22.39;63.48;100587.00;5060772;28;45325;-48
2022/10/22 08:25:28;;;;;;;;;8.00;3.75;;;;;22.39;63.40;100588.81;5060665;28;52262;-45
2022/10/22 08:27:53;;;;;;;;;5.50;4.00;;;;;22.38;63.88;100587.09;5061057;28;45340;-45
2022/10/22 08:30:22;;;;;;;;;7.25;4.75;;;;;22.38;63.72;100587.94;5043896;28;45351;-50
2022/10/22 08:32:48;;;;;;;;;5.00;5.00;;;;;22.38;63.22;100587.09;5060770;28;45406;-44
2022/10/22 08:35:13;;;;;;;;;8.25;5.00;;;;;22.38;63.42;100581.75;5074313;28;45634;-48
2022/10/22 08:37:39;;;;;;;;;6.00;6.00;;;;;22.38;63.42;100581.75;5060708;28;45267;-43
2022/10/22 08:40:05;;;;;;;;;5.25;3.50;;;;;22.36;63.88;100579.19;5060103;28;57855;-46
2022/10/22 08:42:49;;;;;;;;;6.75;4.00;;;;;22.37;63.38;100582.69;5060856;28;45687;-46
2022/10/22 08:45:22;;;;;;;;;6.50;4.00;;;;;22.37;63.34;100578.25;5061545;28;46159;-43
2022/10/22 08:48:23;;;;;;;;;4.50;3.00;;;;;22.36;63.56;100581.84;5072688;28;45422;-45
2022/10/22 08:50:50;;;;;;;;;6.00;4.25;;;;;22.35;63.15;100579.25;5052521;28;45438;-48
2022/10/22 08:53:21;;;;;;;;;6.00;3.25;;;;;22.34;63.31;100578.38;5074240;28;45497;-49
2022/10/22 08:55:47;;;;;;;;;3.75;3.25;;;;;22.34;62.78;100589.03;5071518;28;45375;-44
2022/10/22 08:58:28;;;;;;;;;6.00;3.75;;;;;22.35;62.91;100592.53;5064089;28;45251;-47
2022/10/22 09:01:22;;;;;;;;;6.75;5.50;;;;;22.35;62.84;100589.88;5059976;28;45589;-44
2022/10/22 09:03:56;;;;;;;;;4.50;3.75;;;;;22.35;62.38;100593.41;5074237;28;45382;-46
2022/10/22 09:06:32;;;;;;;;;3.00;3.00;;;;;22.35;62.79;100595.19;5063329;28;46659;-49
2022/10/22 09:08:58;;;;;;;;;6.00;5.25;;;;;22.34;63.30;100598.78;5047211;28;45373;-43
2022/10/22 09:11:30;;;;;;;;;5.50;4.75;;;;;22.34;63.30;100602.31;5069005;28;45379;-45
2022/10/22 09:13:56;;;;;;;;;4.25;4.00;;;;;22.35;62.77;100600.53;5059910;28;45510;-46
2022/10/22 09:16:40;;;;;;;;;5.25;5.00;;;;;22.34;63.03;100606.78;5043200;28;46375;-43
2022/10/22 09:19:12;;;;;;;;;5.75;2.00;;;;;22.34;62.80;100590.81;5064700;28;45477;-44
2022/10/22 09:21:46;;;;;;;;;6.25;3.75;;;;;22.35;63.09;100589.88;5059724;28;45404;-43
2022/10/22 09:24:17;;;;;;;;;3.25;3.00;;;;;22.34;62.83;100597.00;5061246;28;45312;-45
2022/10/22 09:26:43;;;;;;;;;5.00;4.50;;;;;22.34;62.77;100591.69;5060768;28;45268;-47
2022/10/22 09:29:16;;;;;;;;;4.25;3.25;;;;;22.34;62.78;100597.00;5080124;28;45732;-47
2022/10/22 09:31:42;;;;;;;;;7.00;5.00;;;;;22.34;62.91;100599.66;5080013;28;45248;-47
2022/10/22 09:34:07;;;;;;;;;4.75;3.00;;;;;22.35;62.35;100597.84;5080137;28;45580;-45
2022/10/22 09:36:33;;;;;;;;;4.00;3.25;;;;;22.35;62.57;100598.72;5064196;28;63597;-44
2022/10/22 09:38:59;;;;;;;;;3.50;3.00;;;;;22.36;62.79;100599.59;5046204;28;45254;-46
2022/10/22 09:41:28;;;;;;;;;3.75;2.00;;;;;22.36;62.58;100599.59;5073469;28;45256;-48
2022/10/22 09:43:54;;;;;;;;;8.00;5.00;;;;;22.36;63.06;100594.28;5066303;28;45859;-46
2022/10/22 09:46:22;;;;;;;;;3.75;3.00;;;;;22.36;62.86;100584.50;5037346;28;46752;-44
2022/10/22 09:49:03;;;;;;;;;4.75;4.00;;;;;22.37;62.75;100588.03;5062969;28;45472;-42
2022/10/22 09:51:55;;;;;;;;;3.25;2.50;;;;;22.37;62.68;100586.22;5053499;28;45344;-44
2022/10/22 09:54:25;;;;;;;;;8.00;4.75;;;;;22.37;63.17;100585.34;5071272;28;50079;-49
2022/10/22 09:57:03;;;;;;;;;4.25;4.00;;;;;22.37;62.55;100580.91;5073025;28;47214;-46
2022/10/22 09:59:30;;;;;;;;;4.25;3.50;;;;;22.39;63.07;100594.13;5071901;27;46037;-46
2022/10/22 10:02:02;;;;;;;;;4.75;4.25;;;;;22.38;63.17;100587.94;5066112;28;45515;-43
2022/10/22 10:04:27;;;;;;;;;3.25;2.00;;;;;22.39;63.08;100588.81;5072731;28;45498;-47
2022/10/22 10:06:54;;;;;;;;;3.00;3.00;;;;;22.38;62.60;100584.44;5029552;28;46806;-47
2022/10/22 10:09:24;;;;;;;;;4.00;4.00;;;;;22.40;63.25;100591.41;5061312;28;45230;-45
2022/10/22 10:12:11;;;;;;;;;2.00;2.00;;;;;22.40;62.92;100588.75;5079775;28;45376;-45
2022/10/22 10:14:59;;;;;;;;;4.00;4.00;;;;;22.40;63.27;100583.41;5078144;28;45251;-45
2022/10/22 10:18:01;;;;;;;;;3.00;3.00;;;;;22.43;63.09;100591.28;5038543;27;45384;-44
2022/10/22 10:20:39;;;;;;;;;6.00;3.00;;;;;22.44;62.51;100592.16;5072253;28;45211;-46
2022/10/22 10:23:30;;;;;;;;;2.50;2.50;;;;;22.44;62.28;100592.16;5069424;28;45621;-43
2022/10/22 10:26:17;;;;;;;;;4.50;2.75;;;;;22.44;62.23;100598.34;5079263;28;45520;-45
2022/10/22 10:28:45;;;;;;;;;5.25;3.75;;;;;22.47;62.75;100600.84;5078362;28;45627;-44
2022/10/22 10:31:25;;;;;;;;;5.50;3.75;;;;;22.48;62.32;100593.75;5063769;28;45347;-45
2022/10/22 10:34:25;;;;;;;;;5.50;3.25;;;;;22.50;62.93;100597.19;5060175;28;45259;-44
2022/10/22 10:36:56;;;;;;;;;3.75;2.75;;;;;22.50;62.28;100592.78;5063608;28;45438;-42
2022/10/22 10:39:38;;;;;;;;;2.50;2.00;;;;;22.55;63.32;100603.19;5062851;28;46353;-44
2022/10/22 10:42:40;;;;;;;;;7.25;4.75;;;;;22.57;62.37;100604.00;5059920;28;45607;-44
2022/10/22 10:45:15;;;;;;;;;5.75;3.25;;;;;22.58;62.95;100605.72;5078915;28;45338;-42
2022/10/22 10:48:05;;;;;;;;;7.00;4.25;;;;;22.60;62.90;100603.88;5080183;28;45224;-42
2022/10/22 10:50:42;;;;;;;;;4.75;3.00;;;;;22.61;62.37;100607.41;5080212;28;45318;-43
2022/10/22 10:53:23;;;;;;;;;8.25;4.00;;;;;22.62;62.56;100602.00;5080094;28;45229;-44
2022/10/22 10:55:53;;;;;;;;;5.00;4.00;;;;;22.64;62.87;100608.13;5080681;28;45295;-43
2022/10/22 10:58:40;;;;;;;;;7.50;5.00;;;;;22.63;62.78;100600.22;5048500;28;45667;-42
2022/10/22 11:01:18;;;;;;;;;5.00;4.00;;;;;22.64;62.55;100600.16;5073610;27;45336;-42
2022/10/22 11:04:09;;;;;;;;;4.75;4.75;;;;;22.64;62.39;100602.81;5058519;28;45351;-44
2022/10/22 11:06:34;;;;;;;;;5.50;5.25;;;;;22.65;62.45;100601.00;5058430;28;45262;-41
2022/10/22 11:09:02;;;;;;;;;5.50;5.00;;;;;22.65;62.57;100606.31;5068617;28;45626;-45
2022/10/22 11:11:34;;;;;;;;;5.25;3.00;;;;;22.64;62.68;100600.16;5044574;28;47539;-43
2022/10/22 11:14:17;;;;;;;;;5.50;5.00;;;;;22.66;62.09;100608.06;5069763;28;45295;-47
2022/10/22 11:16:53;;;;;;;;;6.50;4.00;;;;;22.67;62.41;100609.78;5063829;28;45212;-43
2022/10/22 11:19:26;;;;;;;;;4.50;4.50;;;;;22.67;62.47;100602.66;5065234;28;45199;-43
2022/10/22 11:21:59;;;;;;;;;5.25;4.25;;;;;22.69;62.50;100599.97;5067534;28;46445;-43
2022/10/22 11:24:27;;;;;;;;;7.75;5.50;;;;;22.70;62.69;100599.88;5059729;28;45323;-44
2022/10/22 11:27:02;;;;;;;;;7.00;5.00;;;;;22.71;62.11;100604.28;5063253;28;45239;-44
2022/10/22 11:29:31;;;;;;;;;5.00;5.00;;;;;22.73;62.44;100606.88;5063226;28;45311;-45
2022/10/22 11:31:56;;;;;;;;;11.00;5.50;;;;;22.71;62.21;100600.75;5072525;28;46202;-45
2022/10/22 11:34:38;;;;;;;;;5.00;5.00;;;;;22.74;62.49;100601.47;5077120;28;45423;-44